Terminal Aerodrome Forecast
Issued by NWS Charleston, WV

Current Version | Previous Version | Text Only | Print | Product List | Glossary Off
Versions: 1 2 3 4 5 6 7 8 9 10 11 12 13 14 15 16 17 18 19 20 21 22 23

000
FTUS41 KRLX 010500 RRA
TAFEKN
TAF
KEKN 010542Z 0106/0206 00000KT 5SM BR BKN250
     FM011200 00000KT P6SM BKN070
     FM011600 17004KT P6SM -SHRA OVC050
     FM012300 00000KT P6SM OVC050
     FM020100 00000KT 5SM BR BKN045=

USA.gov is the U.S. government's official web portal to all federal, state and local government web resources and services.